createdAt,value
2022-12-09T00:01:42.174Z,32.70
2022-12-09T00:04:09.922Z,37.33
2022-12-09T00:06:37.840Z,32.28
2022-12-09T00:09:05.710Z,30.75
2022-12-09T00:11:33.407Z,29.77
2022-12-09T00:14:00.983Z,33.67
2022-12-09T00:16:28.513Z,31.75
2022-12-09T00:18:57.712Z,33.30
2022-12-09T00:21:27.643Z,33.92
2022-12-09T00:23:57.076Z,32.35
2022-12-09T00:26:25.547Z,32.13
2022-12-09T00:28:53.792Z,32.03
2022-12-09T00:31:29.607Z,35.05
2022-12-09T00:33:59.341Z,34.47
2022-12-09T00:36:27.717Z,32.97
2022-12-09T00:38:57.387Z,33.70
2022-12-09T00:41:25.727Z,34.35
2022-12-09T00:43:53.384Z,35.03
2022-12-09T00:46:20.818Z,35.17
2022-12-09T00:48:48.630Z,35.08
2022-12-09T00:51:19.178Z,36.30
2022-12-09T00:53:47.571Z,36.20
2022-12-09T00:56:15.895Z,36.55
2022-12-09T00:58:43.284Z,34.95
2022-12-09T01:01:10.688Z,34.47
2022-12-09T01:03:38.773Z,36.00
2022-12-09T01:06:12.165Z,35.47
2022-12-09T01:08:40.274Z,34.03
2022-12-09T01:11:09.754Z,35.83
2022-12-09T01:13:37.366Z,37.13
2022-12-09T01:16:05.586Z,36.80
2022-12-09T01:18:33.337Z,35.17
2022-12-09T01:21:01.058Z,35.53
2022-12-09T01:23:28.672Z,37.90
2022-12-09T01:25:56.517Z,35.58
2022-12-09T01:28:24.120Z,36.78
2022-12-09T01:30:51.802Z,38.53
2022-12-09T01:33:19.223Z,36.28
2022-12-09T01:35:46.771Z,40.75
2022-12-09T01:38:14.782Z,35.20
2022-12-09T01:40:46.489Z,34.95
2022-12-09T01:43:21.469Z,36.97
2022-12-09T01:45:49.236Z,37.20
2022-12-09T01:48:19.382Z,36.42
2022-12-09T01:50:51.048Z,38.92
2022-12-09T01:53:20.409Z,34.25
2022-12-09T01:55:48.821Z,35.55
2022-12-09T01:58:17.808Z,36.30
2022-12-09T02:00:46.411Z,35.75
2022-12-09T02:03:14.860Z,38.80
2022-12-09T02:05:43.278Z,36.08
2022-12-09T02:08:17.242Z,37.28
2022-12-09T02:10:55.217Z,37.65
2022-12-09T02:13:39.752Z,37.28
2022-12-09T02:16:10.498Z,42.05
2022-12-09T02:18:43.060Z,35.55
2022-12-09T02:21:38.182Z,37.38
2022-12-09T02:24:10.768Z,39.15
2022-12-09T02:26:44.623Z,38.22
2022-12-09T02:29:32.993Z,39.70
2022-12-09T02:32:36.607Z,39.28
2022-12-09T02:35:32.286Z,37.47
2022-12-09T02:38:16.858Z,39.42
2022-12-09T02:40:54.320Z,38.33
2022-12-09T02:43:25.496Z,38.72
2022-12-09T02:45:55.480Z,42.13
2022-12-09T02:48:25.791Z,38.45
2022-12-09T02:50:53.885Z,41.83
2022-12-09T02:53:23.108Z,38.58
2022-12-09T02:55:52.719Z,35.58
2022-12-09T02:58:20.782Z,40.05
2022-12-09T03:00:48.570Z,41.63
2022-12-09T03:03:17.184Z,39.58
2022-12-09T03:06:17.875Z,40.63
2022-12-09T03:09:06.389Z,38.63
2022-12-09T03:11:34.383Z,38.47
2022-12-09T03:14:09.937Z,39.65
2022-12-09T03:16:54.565Z,40.17
2022-12-09T03:19:35.632Z,41.80
2022-12-09T03:22:08.227Z,39.75
2022-12-09T03:24:44.333Z,42.65
2022-12-09T03:27:17.079Z,41.53
2022-12-09T03:32:12.707Z,36.42
2022-12-09T03:34:42.591Z,44.97
2022-12-09T03:37:10.856Z,38.08
2022-12-09T03:39:40.100Z,36.95
2022-12-09T03:42:16.531Z,43.28
2022-12-09T03:44:52.371Z,39.78
2022-12-09T03:47:19.863Z,40.90
2022-12-09T03:49:47.794Z,38.72
2022-12-09T03:52:27.090Z,37.92
2022-12-09T03:55:00.999Z,41.75
2022-12-09T03:57:29.313Z,41.00
2022-12-09T03:59:59.991Z,42.55
2022-12-09T04:02:28.363Z,41.13
2022-12-09T04:04:56.223Z,41.72
2022-12-09T04:07:23.666Z,43.00
2022-12-09T04:09:51.272Z,40.42
2022-12-09T04:12:19.100Z,42.33
2022-12-09T04:14:46.535Z,42.47
2022-12-09T04:17:14.141Z,44.42
2022-12-09T04:19:42.560Z,42.53
2022-12-09T04:22:10.006Z,40.78
2022-12-09T04:24:37.688Z,42.35
2022-12-09T04:27:05.716Z,41.33
2022-12-09T04:29:33.234Z,42.62
2022-12-09T04:32:00.724Z,45.83
2022-12-09T04:34:28.433Z,41.90
2022-12-09T04:36:55.751Z,43.00
2022-12-09T04:39:23.415Z,44.88
2022-12-09T04:41:51.024Z,46.95
2022-12-09T04:44:18.310Z,45.10
2022-12-09T04:46:45.761Z,44.75
2022-12-09T04:49:13.462Z,45.47
2022-12-09T04:51:41.100Z,44.28
2022-12-09T04:54:12.592Z,45.28
2022-12-09T04:59:08.594Z,46.00
2022-12-09T05:01:36.398Z,45.67
2022-12-09T05:04:04.529Z,48.03
2022-12-09T05:06:32.239Z,45.42
2022-12-09T05:09:00.342Z,47.17
2022-12-09T05:11:28.283Z,47.53
2022-12-09T05:13:56.029Z,52.90
2022-12-09T05:16:24.088Z,44.65
2022-12-09T05:18:52.446Z,47.97
2022-12-09T05:21:20.950Z,48.20
2022-12-09T05:23:49.539Z,46.20
2022-12-09T05:26:19.931Z,46.78
2022-12-09T05:28:47.654Z,48.72
2022-12-09T05:31:19.836Z,54.47
2022-12-09T05:33:48.749Z,51.50
2022-12-09T05:36:19.655Z,55.63
2022-12-09T05:38:48.953Z,47.92
2022-12-09T05:41:17.927Z,50.00
2022-12-09T05:43:45.824Z,53.00
2022-12-09T05:46:14.782Z,54.00
2022-12-09T05:48:42.979Z,55.58
2022-12-09T05:51:15.450Z,54.03
2022-12-09T05:53:43.330Z,53.15
2022-12-09T05:56:14.608Z,54.22
2022-12-09T05:58:42.151Z,49.15
2022-12-09T06:01:10.766Z,47.70
2022-12-09T06:03:38.764Z,53.35
2022-12-09T06:06:09.487Z,51.90
2022-12-09T06:08:37.941Z,53.78
2022-12-09T06:11:11.876Z,51.10
2022-12-09T06:13:39.438Z,51.75
2022-12-09T06:16:08.489Z,52.88
2022-12-09T06:18:36.936Z,58.30
2022-12-09T06:21:10.160Z,56.35
2022-12-09T06:23:41.375Z,55.78
2022-12-09T06:26:16.013Z,52.53
2022-12-09T06:28:44.024Z,52.72
2022-12-09T06:31:11.726Z,51.33
2022-12-09T06:33:57.097Z,51.78
2022-12-09T06:36:27.104Z,53.00
2022-12-09T06:38:55.450Z,57.97
2022-12-09T06:41:23.242Z,50.38
2022-12-09T06:43:51.429Z,60.58
2022-12-09T06:46:23.346Z,50.80
2022-12-09T06:51:20.359Z,48.40
2022-12-09T06:53:48.215Z,49.45
2022-12-09T06:56:16.930Z,49.15
2022-12-09T06:58:45.289Z,51.72
2022-12-09T07:01:15.616Z,50.10
2022-12-09T07:03:50.361Z,53.87
2022-12-09T07:06:26.719Z,47.10
2022-12-09T07:08:55.694Z,47.75
2022-12-09T07:11:23.662Z,48.22
2022-12-09T07:13:51.681Z,49.42
2022-12-09T07:16:19.525Z,49.83
2022-12-09T07:18:47.691Z,56.10
2022-12-09T07:21:18.098Z,48.72
2022-12-09T07:23:46.623Z,48.78
2022-12-09T07:26:14.386Z,45.65
2022-12-09T07:28:44.209Z,46.53
2022-12-09T07:31:26.585Z,48.50
2022-12-09T07:33:56.392Z,47.83
2022-12-09T07:36:26.515Z,45.88
2022-12-09T07:38:58.072Z,48.45
2022-12-09T07:41:25.977Z,45.35
2022-12-09T07:43:53.715Z,43.08
2022-12-09T07:46:22.626Z,47.47
2022-12-09T07:48:50.502Z,42.92
2022-12-09T07:51:18.620Z,43.67
2022-12-09T07:53:46.940Z,48.17
2022-12-09T07:56:15.831Z,46.22
2022-12-09T07:58:46.994Z,45.10
2022-12-09T08:01:19.761Z,42.15
2022-12-09T08:03:48.779Z,45.38
2022-12-09T08:06:22.549Z,44.88
2022-12-09T08:08:51.193Z,42.15
2022-12-09T08:11:24.193Z,41.97
2022-12-09T08:13:52.614Z,40.60
2022-12-09T08:16:22.076Z,40.30
2022-12-09T08:18:51.002Z,41.28
2022-12-09T08:21:22.821Z,39.80
2022-12-09T08:23:50.934Z,39.50
2022-12-09T08:26:21.469Z,37.90
2022-12-09T08:28:49.548Z,38.33
2022-12-09T08:31:19.771Z,36.47
2022-12-09T08:33:48.123Z,38.90
2022-12-09T08:36:21.715Z,35.55
2022-12-09T08:38:50.164Z,33.83
2022-12-09T08:41:20.802Z,35.42
2022-12-09T08:43:48.425Z,37.67
2022-12-09T08:46:16.343Z,33.53
2022-12-09T08:48:44.177Z,36.90
2022-12-09T08:51:12.343Z,34.08
2022-12-09T08:53:40.684Z,35.10
2022-12-09T08:56:10.266Z,33.88
2022-12-09T08:58:38.102Z,36.60
2022-12-09T09:01:06.440Z,36.38
2022-12-09T09:03:34.290Z,33.88
2022-12-09T09:06:09.184Z,32.42
2022-12-09T09:08:39.118Z,31.52
2022-12-09T09:11:12.410Z,32.15
2022-12-09T09:13:41.529Z,30.58
2022-12-09T09:16:12.287Z,33.22
2022-12-09T09:18:40.980Z,33.55
2022-12-09T09:21:11.047Z,32.67
2022-12-09T09:23:38.781Z,35.17
2022-12-09T09:26:11.001Z,33.00
2022-12-09T09:28:39.206Z,31.23
2022-12-09T09:31:08.666Z,31.67
2022-12-09T09:33:37.238Z,31.98
2022-12-09T09:36:10.449Z,34.75
2022-12-09T09:38:39.424Z,35.30
2022-12-09T09:41:28.631Z,36.35
2022-12-09T09:43:56.689Z,36.88
2022-12-09T09:46:36.058Z,36.85
2022-12-09T09:49:06.755Z,35.35
2022-12-09T09:51:35.765Z,41.80
2022-12-09T09:54:08.434Z,36.28
2022-12-09T09:57:03.652Z,34.35
2022-12-09T09:59:34.189Z,32.65
2022-12-09T10:02:07.960Z,37.38
2022-12-09T10:04:44.361Z,31.92
2022-12-09T10:07:37.807Z,34.17
2022-12-09T10:10:32.397Z,33.88
2022-12-09T10:13:43.124Z,34.72
2022-12-09T10:16:21.050Z,34.58
2022-12-09T10:19:02.495Z,36.80
2022-12-09T10:21:34.780Z,35.90
2022-12-09T10:24:38.768Z,35.53
2022-12-09T10:27:29.843Z,40.67
2022-12-09T10:30:13.010Z,35.92
2022-12-09T10:32:41.343Z,36.25
2022-12-09T10:35:21.185Z,35.22
2022-12-09T10:37:52.603Z,35.88
2022-12-09T10:40:35.543Z,42.75
2022-12-09T10:43:44.229Z,34.42
2022-12-09T10:46:24.306Z,32.50
2022-12-09T10:48:56.130Z,34.45
2022-12-09T10:51:29.945Z,33.60
2022-12-09T10:54:00.021Z,36.60
2022-12-09T10:56:35.053Z,35.72
2022-12-09T10:59:29.973Z,35.78
2022-12-09T11:02:02.848Z,34.30
2022-12-09T11:04:33.972Z,28.25
2022-12-09T11:07:05.233Z,28.65
2022-12-09T11:09:43.851Z,25.67
2022-12-09T11:12:38.489Z,28.00
2022-12-09T11:15:11.739Z,31.30
2022-12-09T11:17:42.485Z,29.45
2022-12-09T11:20:17.569Z,30.27
2022-12-09T11:22:45.992Z,29.92
2022-12-09T11:25:27.328Z,29.70
2022-12-09T11:28:18.178Z,31.45
2022-12-09T11:31:27.011Z,30.35
2022-12-09T11:33:49.177Z,26.37
2022-12-09T11:36:23.024Z,28.90
2022-12-09T11:38:52.466Z,29.00
2022-12-09T11:41:45.095Z,29.48
2022-12-09T11:44:25.533Z,35.70
2022-12-09T11:47:07.958Z,31.90
2022-12-09T11:49:43.800Z,30.25
2022-12-09T11:52:17.282Z,26.95
2022-12-09T11:54:50.138Z,26.85
2022-12-09T11:57:34.549Z,28.87
2022-12-09T12:00:15.367Z,28.55
2022-12-09T12:02:47.607Z,30.55
2022-12-09T12:05:25.743Z,31.42
2022-12-09T12:08:18.021Z,27.50
2022-12-09T12:11:11.853Z,28.42
2022-12-09T12:13:47.887Z,33.97
2022-12-09T12:16:49.540Z,26.00
2022-12-09T12:19:38.939Z,26.62
2022-12-09T12:22:24.925Z,28.08
2022-12-09T12:24:55.386Z,28.85
2022-12-09T12:27:47.062Z,27.62
2022-12-09T12:30:18.965Z,24.93
2022-12-09T12:36:04.279Z,26.85
2022-12-09T12:38:54.875Z,27.70
2022-12-09T12:41:40.303Z,28.23
2022-12-09T12:44:44.611Z,24.92
2022-12-09T12:47:20.569Z,26.33
2022-12-09T12:50:17.244Z,24.25
2022-12-09T12:52:57.192Z,26.52
2022-12-09T12:55:41.699Z,25.50
2022-12-09T12:58:28.055Z,24.08
2022-12-09T13:01:22.396Z,28.17
2022-12-09T13:04:25.321Z,26.17
2022-12-09T13:07:17.140Z,27.75
2022-12-09T13:10:03.640Z,27.98
2022-12-09T13:12:56.971Z,25.92
2022-12-09T13:15:32.391Z,26.75
2022-12-09T13:18:07.247Z,25.88
2022-12-09T13:20:46.211Z,26.35
2022-12-09T13:23:32.280Z,29.58
2022-12-09T13:26:13.646Z,28.83
2022-12-09T13:28:43.962Z,28.92
2022-12-09T13:31:11.600Z,28.98
2022-12-09T13:33:53.839Z,28.02
2022-12-09T13:36:39.674Z,29.45
2022-12-09T13:39:11.078Z,29.92
2022-12-09T13:42:02.023Z,29.70
2022-12-09T13:44:34.939Z,28.60
2022-12-09T13:47:28.452Z,31.00
2022-12-09T13:49:58.983Z,34.08
2022-12-09T13:52:48.103Z,31.23
2022-12-09T13:55:40.222Z,27.75
2022-12-09T13:58:19.416Z,30.23
2022-12-09T14:01:04.448Z,29.20
2022-12-09T14:03:36.620Z,30.70
2022-12-09T14:06:38.482Z,27.40
2022-12-09T14:09:43.816Z,34.00
2022-12-09T14:12:13.866Z,31.30
2022-12-09T14:14:44.429Z,30.50
2022-12-09T14:17:40.649Z,30.75
2022-12-09T14:20:27.851Z,34.15
2022-12-09T14:23:24.610Z,30.88
2022-12-09T14:26:00.046Z,32.78
2022-12-09T14:28:36.578Z,29.98
2022-12-09T14:31:08.645Z,33.38
2022-12-09T14:33:39.342Z,33.20
2022-12-09T14:36:13.059Z,30.05
2022-12-09T14:39:15.635Z,31.40
2022-12-09T14:41:46.295Z,31.20
2022-12-09T14:44:47.440Z,32.40
2022-12-09T14:47:22.134Z,32.85
2022-12-09T14:49:50.755Z,31.10
2022-12-09T14:52:30.958Z,31.00
2022-12-09T14:55:01.274Z,33.80
2022-12-09T14:57:33.102Z,38.88
2022-12-09T15:00:00.403Z,33.70
2022-12-09T15:02:30.455Z,30.92
2022-12-09T15:05:00.605Z,28.70
2022-12-09T15:07:33.072Z,30.73
2022-12-09T15:10:07.947Z,29.12
2022-12-09T15:12:36.651Z,29.75
2022-12-09T15:15:10.935Z,33.30
2022-12-09T15:17:44.958Z,34.22
2022-12-09T15:20:48.907Z,33.60
2022-12-09T15:23:20.648Z,30.67
2022-12-09T15:25:56.667Z,33.75
2022-12-09T15:28:27.234Z,33.05
2022-12-09T15:30:57.058Z,36.17
2022-12-09T15:33:24.863Z,35.55
2022-12-09T15:36:02.481Z,35.58
2022-12-09T15:38:40.494Z,34.40
2022-12-09T15:41:27.590Z,34.00
2022-12-09T15:43:59.444Z,36.70
2022-12-09T15:46:27.906Z,32.55
2022-12-09T15:48:57.495Z,34.08
2022-12-09T15:51:26.385Z,32.90
2022-12-09T15:54:06.170Z,30.40
2022-12-09T15:56:44.407Z,29.95
2022-12-09T15:59:24.813Z,31.27
2022-12-09T16:01:54.092Z,35.85
2022-12-09T16:04:35.955Z,28.70
2022-12-09T16:07:12.931Z,32.17
2022-12-09T16:09:40.828Z,29.80
2022-12-09T16:12:27.735Z,28.45
2022-12-09T16:14:55.703Z,31.02
2022-12-09T16:17:26.999Z,32.85
2022-12-09T16:19:54.682Z,30.20
2022-12-09T16:22:26.410Z,32.88
2022-12-09T16:25:24.539Z,31.40
2022-12-09T16:28:03.604Z,32.83
2022-12-09T16:30:32.991Z,29.95
2022-12-09T16:33:02.158Z,27.45
2022-12-09T16:35:42.766Z,28.80
2022-12-09T16:38:10.315Z,30.40
2022-12-09T16:40:43.656Z,31.15
2022-12-09T16:43:17.357Z,28.62
2022-12-09T16:46:02.035Z,31.33
2022-12-09T16:48:30.306Z,29.63
2022-12-09T16:51:10.568Z,28.70
2022-12-09T16:53:43.185Z,30.45
2022-12-09T16:56:20.636Z,27.05
2022-12-09T16:58:48.427Z,29.15
2022-12-09T17:01:17.801Z,26.73
2022-12-09T17:03:58.884Z,27.92
2022-12-09T17:06:26.623Z,23.80
2022-12-09T17:08:53.937Z,27.00
2022-12-09T17:11:21.787Z,22.70
2022-12-09T17:13:50.111Z,24.27
2022-12-09T17:16:17.580Z,22.87
2022-12-09T17:18:45.120Z,25.27
2022-12-09T17:21:15.882Z,26.17
2022-12-09T17:23:44.042Z,24.05
2022-12-09T17:26:13.991Z,26.80
2022-12-09T17:28:42.426Z,23.92
2022-12-09T17:31:15.635Z,23.85
2022-12-09T17:33:45.940Z,23.25
2022-12-09T17:36:14.383Z,23.65
2022-12-09T17:38:42.168Z,21.50
2022-12-09T17:41:13.233Z,22.08
2022-12-09T17:43:40.763Z,23.50
2022-12-09T17:46:09.828Z,23.40
2022-12-09T17:48:39.851Z,22.35
2022-12-09T17:51:09.836Z,22.48
2022-12-09T17:53:38.817Z,23.45
2022-12-09T17:56:18.106Z,20.62
2022-12-09T17:58:46.495Z,20.65
2022-12-09T18:01:19.653Z,20.75
2022-12-09T18:03:56.040Z,22.62
2022-12-09T18:06:27.775Z,21.65
2022-12-09T18:08:55.438Z,22.75
2022-12-09T18:11:23.500Z,20.55
2022-12-09T18:13:51.260Z,20.17
2022-12-09T18:16:19.752Z,20.80
2022-12-09T18:18:47.503Z,21.37
2022-12-09T18:21:16.274Z,23.52
2022-12-09T18:23:44.380Z,23.50
2022-12-09T18:26:14.415Z,23.58
2022-12-09T18:28:41.806Z,16.77
2022-12-09T18:31:12.699Z,18.67
2022-12-09T18:33:40.862Z,16.25
2022-12-09T18:36:08.866Z,17.62
2022-12-09T18:38:37.285Z,20.20
2022-12-09T18:41:04.833Z,17.98
2022-12-09T18:43:38.039Z,17.23
2022-12-09T18:46:08.778Z,23.85
2022-12-09T18:48:36.882Z,17.37
2022-12-09T18:51:04.544Z,14.73
2022-12-09T18:53:32.154Z,13.90
2022-12-09T18:55:59.513Z,13.77
2022-12-09T18:58:49.602Z,18.12
2022-12-09T19:01:14.931Z,10.93
2022-12-09T19:03:42.320Z,12.32
2022-12-09T19:06:22.050Z,12.02
2022-12-09T19:08:54.358Z,11.77
2022-12-09T19:11:22.859Z,17.58
2022-12-09T19:13:50.536Z,12.85
2022-12-09T19:16:17.961Z,14.95
2022-12-09T19:18:45.806Z,13.25
2022-12-09T19:21:16.146Z,14.20
2022-12-09T19:23:45.119Z,11.43
2022-12-09T19:26:20.270Z,14.52
2022-12-09T19:29:07.455Z,11.02
2022-12-09T19:31:38.065Z,12.37
2022-12-09T19:34:30.828Z,11.45
2022-12-09T19:39:30.024Z,10.82
2022-12-09T19:41:58.447Z,12.95
2022-12-09T19:44:52.624Z,11.38
2022-12-09T19:47:14.172Z,9.52
2022-12-09T19:49:43.342Z,11.57
2022-12-09T19:52:11.961Z,9.45
2022-12-09T19:54:39.696Z,10.30
2022-12-09T19:57:07.063Z,9.65
2022-12-09T19:59:35.559Z,10.63
2022-12-09T20:02:03.402Z,9.85
2022-12-09T20:07:19.424Z,10.65
2022-12-09T20:09:47.439Z,9.43
2022-12-09T20:12:14.764Z,7.93
2022-12-09T20:14:43.151Z,8.73
2022-12-09T20:17:11.011Z,9.32
2022-12-09T20:19:38.356Z,7.93
2022-12-09T20:22:05.654Z,8.45
2022-12-09T20:24:33.365Z,7.87
2022-12-09T20:27:00.768Z,7.60
2022-12-09T20:29:32.451Z,8.63
2022-12-09T20:32:03.343Z,8.48
2022-12-09T20:34:30.719Z,6.85
2022-12-09T20:36:58.162Z,7.07
2022-12-09T20:39:25.731Z,10.52
2022-12-09T20:41:53.092Z,8.13
2022-12-09T20:44:20.594Z,7.25
2022-12-09T20:46:50.412Z,6.57
2022-12-09T20:49:21.503Z,7.12
2022-12-09T20:51:49.322Z,6.40
2022-12-09T20:54:16.736Z,9.13
2022-12-09T20:56:44.157Z,5.32
2022-12-09T20:59:13.525Z,16.55
2022-12-09T21:01:41.389Z,15.00
2022-12-09T21:04:09.048Z,7.65
2022-12-09T21:06:38.375Z,5.57
2022-12-09T21:09:09.103Z,6.07
2022-12-09T21:11:37.376Z,12.50
2022-12-09T21:14:06.789Z,9.43
2022-12-09T21:16:37.685Z,11.27
2022-12-09T21:19:07.260Z,7.30
2022-12-09T21:21:37.867Z,10.65
2022-12-09T21:24:06.005Z,12.18
2022-12-09T21:26:33.385Z,9.27
2022-12-09T21:29:01.491Z,10.10
2022-12-09T21:31:32.474Z,9.52
2022-12-09T21:34:02.964Z,9.90
2022-12-09T21:36:32.564Z,13.10
2022-12-09T21:39:00.107Z,8.98
2022-12-09T21:41:29.915Z,9.45
2022-12-09T21:43:57.976Z,11.77
2022-12-09T21:46:30.468Z,11.02
2022-12-09T21:49:03.607Z,11.32
2022-12-09T21:51:32.794Z,11.15
2022-12-09T21:54:00.936Z,13.57
2022-12-09T21:56:32.647Z,9.15
2022-12-09T21:59:00.773Z,8.35
2022-12-09T22:01:30.951Z,12.68
2022-12-09T22:04:00.081Z,9.80
2022-12-09T22:06:28.339Z,9.95
2022-12-09T22:08:55.914Z,10.38
2022-12-09T22:11:25.540Z,10.07
2022-12-09T22:13:53.484Z,8.27
2022-12-09T22:16:26.417Z,8.70
2022-12-09T22:18:56.056Z,10.00
2022-12-09T22:21:26.377Z,13.18
2022-12-09T22:24:04.105Z,12.50
2022-12-09T22:26:31.868Z,14.55
2022-12-09T22:29:01.075Z,17.52
2022-12-09T22:31:31.331Z,16.65
2022-12-09T22:34:01.335Z,17.08
2022-12-09T22:36:28.716Z,13.82
2022-12-09T22:38:56.059Z,15.15
2022-12-09T22:41:27.712Z,17.85
2022-12-09T22:43:55.992Z,17.52
2022-12-09T22:46:27.211Z,18.17
2022-12-09T22:48:55.625Z,15.07
2022-12-09T22:51:25.963Z,12.27
2022-12-09T22:53:55.055Z,17.73
2022-12-09T22:56:23.188Z,15.75
2022-12-09T22:58:51.048Z,19.42
2022-12-09T23:01:21.414Z,15.10
2022-12-09T23:03:48.756Z,17.80
2022-12-09T23:06:16.370Z,18.55
2022-12-09T23:08:44.869Z,13.20
2022-12-09T23:11:14.623Z,17.87
2022-12-09T23:13:42.530Z,16.02
2022-12-09T23:16:13.138Z,14.82
2022-12-09T23:18:41.412Z,13.60
2022-12-09T23:21:18.077Z,15.77
2022-12-09T23:23:46.150Z,15.70
2022-12-09T23:26:16.554Z,15.60
2022-12-09T23:28:46.752Z,18.12
2022-12-09T23:31:17.312Z,21.05
2022-12-09T23:33:46.923Z,22.15
2022-12-09T23:36:23.720Z,30.52
2022-12-09T23:38:51.775Z,20.73
2022-12-09T23:41:20.595Z,26.65
2022-12-09T23:43:49.173Z,21.58
2022-12-09T23:46:18.630Z,20.00
2022-12-09T23:48:47.954Z,18.48
2022-12-09T23:51:29.813Z,21.45
2022-12-09T23:54:00.264Z,22.27
2022-12-09T23:56:30.563Z,21.60
2022-12-09T23:59:00.462Z,18.40
